createdAt,value
2022-09-27T00:01:18.094Z,2.90
2022-09-27T00:03:49.718Z,5.10
2022-09-27T00:08:52.214Z,4.30
2022-09-27T00:11:28.109Z,3.60
2022-09-27T00:14:00.222Z,3.80
2022-09-27T00:16:32.970Z,4.00
2022-09-27T00:19:05.076Z,3.60
2022-09-27T00:21:37.355Z,4.30
2022-09-27T00:24:11.570Z,3.60
2022-09-27T00:26:43.598Z,3.40
2022-09-27T00:29:15.746Z,4.20
2022-09-27T00:31:47.727Z,4.90
2022-09-27T00:34:22.520Z,3.40
2022-09-27T00:36:55.856Z,3.30
2022-09-27T00:39:27.597Z,4.50
2022-09-27T00:41:59.340Z,4.00
2022-09-27T00:45:01.722Z,4.50
2022-09-27T00:47:37.139Z,5.30
2022-09-27T00:50:12.814Z,3.60
2022-09-27T00:52:47.561Z,4.20
2022-09-27T00:55:21.575Z,3.40
2022-09-27T00:57:53.472Z,3.40
2022-09-27T01:00:25.608Z,4.10
2022-09-27T01:02:58.473Z,4.10
2022-09-27T01:05:30.882Z,4.00
2022-09-27T01:08:02.793Z,3.50
2022-09-27T01:10:38.754Z,3.30
2022-09-27T01:13:14.565Z,3.90
2022-09-27T01:15:50.189Z,4.30
2022-09-27T01:18:27.362Z,4.50
2022-09-27T01:21:32.024Z,4.30
2022-09-27T01:24:26.455Z,4.40
2022-09-27T01:27:16.639Z,3.90
2022-09-27T01:29:54.922Z,4.40
2022-09-27T01:32:29.811Z,4.00
2022-09-27T01:35:04.259Z,3.90
2022-09-27T01:37:40.215Z,4.20
2022-09-27T01:40:14.936Z,4.40
2022-09-27T01:43:09.674Z,4.80
2022-09-27T01:45:45.762Z,4.10
2022-09-27T01:48:23.964Z,4.60
2022-09-27T01:51:01.516Z,3.70
2022-09-27T01:53:34.911Z,3.90
2022-09-27T01:56:33.668Z,4.00
2022-09-27T01:59:11.227Z,4.20
2022-09-27T02:01:48.137Z,4.50
2022-09-27T02:04:22.257Z,3.50
2022-09-27T02:07:07.778Z,4.60
2022-09-27T02:22:42.432Z,22.80
2022-09-27T02:25:19.604Z,10.80
2022-09-27T02:27:55.538Z,5.80
2022-09-27T02:30:27.435Z,4.10
2022-09-27T02:33:05.390Z,4.60
2022-09-27T02:35:37.537Z,5.10
2022-09-27T02:38:09.927Z,5.30
2022-09-27T02:40:47.416Z,4.70
2022-09-27T02:43:19.940Z,4.70
2022-09-27T02:46:00.324Z,5.70
2022-09-27T02:48:34.983Z,4.90
2022-09-27T02:51:19.541Z,8.90
2022-09-27T02:53:58.753Z,12.90
2022-09-27T02:56:56.255Z,16.50
2022-09-27T02:59:51.558Z,13.20
2022-09-27T03:02:34.319Z,15.60
2022-09-27T03:05:28.049Z,11.90
2022-09-27T03:07:59.813Z,11.40
2022-09-27T03:10:33.126Z,6.20
2022-09-27T03:13:05.265Z,5.70
2022-09-27T03:15:37.046Z,5.30
2022-09-27T03:18:09.238Z,5.70
2022-09-27T03:20:47.124Z,5.30
2022-09-27T03:23:24.174Z,6.10
2022-09-27T03:25:56.123Z,5.90
2022-09-27T03:28:30.083Z,5.80
2022-09-27T03:31:02.307Z,5.00
2022-09-27T03:33:48.888Z,5.40
2022-09-27T03:36:20.709Z,5.80
2022-09-27T03:38:52.436Z,5.90
2022-09-27T03:41:24.321Z,6.60
2022-09-27T03:43:58.053Z,6.40
2022-09-27T03:46:29.854Z,6.10
2022-09-27T03:51:32.995Z,7.30
2022-09-27T03:54:05.020Z,6.90
2022-09-27T03:56:36.934Z,7.00
2022-09-27T03:59:08.989Z,6.30
2022-09-27T04:02:05.076Z,6.30
2022-09-27T04:05:02.981Z,7.00
2022-09-27T04:07:35.693Z,7.10
2022-09-27T04:10:09.185Z,8.10
2022-09-27T04:12:42.702Z,7.30
2022-09-27T04:15:14.989Z,7.30
2022-09-27T04:18:13.565Z,7.10
2022-09-27T04:21:08.729Z,7.40
2022-09-27T04:23:47.026Z,8.00
2022-09-27T04:26:20.044Z,7.50
2022-09-27T04:29:04.665Z,7.90
2022-09-27T04:31:38.231Z,7.70
2022-09-27T04:35:08.643Z,7.50
2022-09-27T04:37:46.977Z,7.80
2022-09-27T04:40:25.752Z,8.30
2022-09-27T04:42:58.412Z,8.00
2022-09-27T04:45:30.753Z,8.00
2022-09-27T04:50:47.383Z,7.50
2022-09-27T04:53:22.442Z,8.40
2022-09-27T04:55:55.715Z,9.30
2022-09-27T04:58:28.220Z,7.90
2022-09-27T05:01:00.465Z,7.60
2022-09-27T05:04:04.980Z,7.80
2022-09-27T05:06:39.412Z,8.50
2022-09-27T05:09:14.920Z,7.80
2022-09-27T05:11:54.136Z,8.20
2022-09-27T05:14:48.471Z,8.30
2022-09-27T05:17:22.172Z,8.10
2022-09-27T05:20:14.478Z,7.70
2022-09-27T05:22:54.317Z,7.70
2022-09-27T05:27:56.780Z,6.20
2022-09-27T05:30:29.555Z,7.20
2022-09-27T05:33:10.159Z,7.30
2022-09-27T05:36:02.536Z,6.80
2022-09-27T05:38:35.452Z,6.80
2022-09-27T05:41:07.604Z,6.40
2022-09-27T05:43:39.683Z,7.00
2022-09-27T05:48:43.231Z,7.10
2022-09-27T05:51:15.996Z,7.10
2022-09-27T05:53:48.233Z,8.10
2022-09-27T05:56:27.195Z,6.80
2022-09-27T05:59:17.674Z,7.20
2022-09-27T06:02:11.224Z,6.80
2022-09-27T06:05:04.083Z,6.30
2022-09-27T06:07:59.413Z,6.60
2022-09-27T06:10:36.353Z,6.90
2022-09-27T06:13:10.379Z,6.30
2022-09-27T06:15:46.935Z,6.00
2022-09-27T06:18:18.711Z,6.10
2022-09-27T06:20:53.344Z,6.40
2022-09-27T06:23:25.782Z,6.10
2022-09-27T06:25:59.950Z,5.80
2022-09-27T06:28:54.964Z,5.80
2022-09-27T06:31:27.078Z,6.60
2022-09-27T06:34:16.999Z,6.20
2022-09-27T06:36:51.685Z,5.80
2022-09-27T06:39:24.759Z,5.50
2022-09-27T06:42:25.764Z,5.20
2022-09-27T06:45:06.748Z,5.20
2022-09-27T06:47:57.744Z,5.20
2022-09-27T06:50:38.649Z,5.40
2022-09-27T06:53:12.293Z,5.20
2022-09-27T06:55:46.508Z,5.60
2022-09-27T06:58:35.964Z,5.50
2022-09-27T07:01:32.229Z,5.30
2022-09-27T07:04:25.770Z,6.10
2022-09-27T07:07:17.889Z,6.10
2022-09-27T07:09:51.803Z,5.80
2022-09-27T07:12:24.951Z,5.00
2022-09-27T07:14:58.931Z,5.50
2022-09-27T07:17:31.092Z,4.90
2022-09-27T07:20:03.279Z,5.50
2022-09-27T07:22:35.071Z,5.00
2022-09-27T07:25:09.721Z,5.70
2022-09-27T07:27:42.824Z,5.50
2022-09-27T07:30:16.625Z,6.10
2022-09-27T07:32:48.256Z,5.70
2022-09-27T07:37:50.090Z,6.00
2022-09-27T07:40:22.366Z,5.60
2022-09-27T07:42:59.012Z,5.40
2022-09-27T07:45:31.677Z,5.60
2022-09-27T07:48:22.535Z,5.00
2022-09-27T07:51:11.188Z,5.20
2022-09-27T07:53:52.702Z,5.30
2022-09-27T07:56:51.347Z,4.70
2022-09-27T07:59:26.260Z,4.70
2022-09-27T08:01:58.562Z,5.00
2022-09-27T08:04:30.232Z,5.10
2022-09-27T08:07:01.923Z,4.40
2022-09-27T08:09:35.109Z,4.80
2022-09-27T08:12:07.141Z,4.50
2022-09-27T08:14:43.946Z,4.30
2022-09-27T08:17:17.663Z,4.80
2022-09-27T08:20:12.761Z,4.30
2022-09-27T08:25:42.868Z,4.90
2022-09-27T08:28:41.950Z,4.50
2022-09-27T08:31:24.670Z,4.00
2022-09-27T08:33:58.587Z,3.90
2022-09-27T08:36:32.247Z,4.40
2022-09-27T08:39:04.420Z,3.50
2022-09-27T08:41:49.071Z,5.20
2022-09-27T08:44:25.432Z,4.40
2022-09-27T08:47:12.211Z,4.60
2022-09-27T08:49:47.384Z,3.80
2022-09-27T08:52:21.985Z,4.00
2022-09-27T08:54:54.292Z,4.30
2022-09-27T08:57:26.391Z,5.10
2022-09-27T09:00:07.278Z,4.70
2022-09-27T09:02:39.702Z,5.30
2022-09-27T09:05:14.676Z,4.10
2022-09-27T09:07:53.589Z,4.00
2022-09-27T09:10:53.090Z,4.20
2022-09-27T09:13:32.004Z,4.30
2022-09-27T09:16:12.343Z,3.70
2022-09-27T09:18:57.446Z,3.70
2022-09-27T09:21:47.010Z,3.90
2022-09-27T09:24:29.704Z,4.00
2022-09-27T09:27:04.033Z,3.40
2022-09-27T09:29:51.049Z,4.30
2022-09-27T09:32:27.376Z,3.50
2022-09-27T09:35:01.644Z,3.80
2022-09-27T09:37:39.248Z,3.80
2022-09-27T09:40:19.005Z,3.00
2022-09-27T09:42:54.016Z,3.40
2022-09-27T09:45:26.614Z,4.00
2022-09-27T09:48:02.285Z,3.70
2022-09-27T09:50:36.481Z,3.10
2022-09-27T09:53:15.081Z,3.50
2022-09-27T09:55:49.339Z,3.50
2022-09-27T09:58:25.107Z,3.50
2022-09-27T10:01:02.792Z,3.60
2022-09-27T10:03:35.267Z,3.40
2022-09-27T10:08:37.899Z,3.80
2022-09-27T10:11:28.374Z,3.90
2022-09-27T10:14:15.371Z,3.40
2022-09-27T10:16:49.033Z,2.80
2022-09-27T10:19:33.946Z,3.20
2022-09-27T10:22:13.815Z,3.40
2022-09-27T10:24:57.569Z,3.20
2022-09-27T10:27:50.875Z,3.40
2022-09-27T10:30:30.158Z,3.50
2022-09-27T10:33:05.116Z,3.30
2022-09-27T10:35:49.621Z,4.00
2022-09-27T10:38:34.635Z,3.90
2022-09-27T10:41:24.010Z,3.40
2022-09-27T10:43:56.103Z,4.00
2022-09-27T10:46:34.288Z,3.10
2022-09-27T10:49:26.789Z,3.60
2022-09-27T10:51:59.588Z,4.50
2022-09-27T10:54:32.634Z,3.50
2022-09-27T10:57:06.164Z,3.50
2022-09-27T10:59:40.182Z,4.00
2022-09-27T11:02:20.812Z,3.80
2022-09-27T11:05:15.459Z,3.60
2022-09-27T11:07:55.352Z,3.70
2022-09-27T11:10:37.691Z,3.70
2022-09-27T11:13:17.423Z,3.50
2022-09-27T11:15:58.972Z,4.00
2022-09-27T11:18:35.360Z,4.40
2022-09-27T11:21:12.044Z,3.70
2022-09-27T11:23:51.390Z,3.80
2022-09-27T11:26:41.357Z,4.00
2022-09-27T11:29:22.000Z,5.10
2022-09-27T11:32:18.174Z,4.20
2022-09-27T11:35:05.289Z,5.10
2022-09-27T11:37:42.421Z,4.40
2022-09-27T11:40:22.274Z,4.70
2022-09-27T11:43:05.566Z,5.70
2022-09-27T11:46:13.329Z,5.00
2022-09-27T11:48:47.314Z,4.50
2022-09-27T11:51:30.097Z,5.10
2022-09-27T11:54:17.603Z,4.30
2022-09-27T11:56:52.563Z,5.40
2022-09-27T11:59:50.996Z,5.20
2022-09-27T12:02:35.864Z,5.10
2022-09-27T12:05:35.125Z,5.00
2022-09-27T12:08:16.925Z,5.00
2022-09-27T12:10:51.297Z,4.70
2022-09-27T12:13:33.663Z,4.80
2022-09-27T12:16:05.439Z,5.40
2022-09-27T12:18:41.090Z,4.90
2022-09-27T12:21:29.643Z,5.00
2022-09-27T12:26:40.541Z,5.30
2022-09-27T12:29:15.711Z,5.40
2022-09-27T12:31:52.132Z,5.40
2022-09-27T12:34:25.990Z,5.30
2022-09-27T12:37:00.832Z,5.70
2022-09-27T12:39:35.180Z,5.50
2022-09-27T12:42:20.752Z,5.70
2022-09-27T12:44:52.282Z,5.00
2022-09-27T12:47:44.746Z,5.20
2022-09-27T12:50:25.797Z,5.10
2022-09-27T12:52:59.634Z,5.80
2022-09-27T12:55:50.857Z,5.30
2022-09-27T12:58:33.577Z,5.10
2022-09-27T13:01:08.757Z,5.50
2022-09-27T13:03:49.360Z,5.70
2022-09-27T13:06:32.435Z,5.50
2022-09-27T13:09:24.923Z,5.50
2022-09-27T13:12:01.609Z,4.70
2022-09-27T13:14:36.378Z,5.10
2022-09-27T13:17:07.830Z,5.60
2022-09-27T13:19:45.883Z,4.90
2022-09-27T13:22:43.921Z,5.30
2022-09-27T13:25:56.295Z,5.00
2022-09-27T13:29:02.432Z,4.90
2022-09-27T13:32:22.710Z,5.20
2022-09-27T13:35:24.689Z,4.40
2022-09-27T13:38:02.503Z,5.50
2022-09-27T13:40:54.518Z,6.10
2022-09-27T13:43:53.727Z,5.40
2022-09-27T13:46:37.634Z,5.90
2022-09-27T13:49:17.018Z,5.20
2022-09-27T13:52:23.878Z,5.80
2022-09-27T13:55:07.718Z,5.60
2022-09-27T13:57:53.089Z,5.00
2022-09-27T14:00:28.786Z,5.30
2022-09-27T14:03:17.739Z,5.30
2022-09-27T14:05:56.792Z,5.00
2022-09-27T14:08:31.242Z,5.40
2022-09-27T14:11:03.477Z,5.30
2022-09-27T14:13:37.229Z,5.00
2022-09-27T14:16:15.141Z,4.60
2022-09-27T14:18:52.541Z,5.00
2022-09-27T14:21:33.612Z,5.40
2022-09-27T14:24:33.161Z,5.20
2022-09-27T14:27:17.556Z,5.40
2022-09-27T14:29:51.692Z,5.00
2022-09-27T14:32:26.968Z,5.20
2022-09-27T14:35:31.000Z,5.60
2022-09-27T14:38:20.585Z,5.80
2022-09-27T14:41:01.855Z,5.60
2022-09-27T14:43:33.557Z,6.00
2022-09-27T14:46:07.337Z,6.00
2022-09-27T14:48:40.363Z,5.10
2022-09-27T14:51:21.966Z,6.30
2022-09-27T14:53:57.386Z,6.00
2022-09-27T14:56:32.472Z,6.40
2022-09-27T14:59:07.023Z,6.60
2022-09-27T15:01:40.498Z,5.70
2022-09-27T15:04:17.760Z,6.60
2022-09-27T15:06:50.013Z,6.10
2022-09-27T15:09:21.778Z,5.40
2022-09-27T15:11:55.346Z,6.40
2022-09-27T15:14:28.478Z,6.50
2022-09-27T15:17:05.921Z,7.20
2022-09-27T15:19:37.415Z,6.60
2022-09-27T15:22:35.234Z,5.30
2022-09-27T15:25:19.799Z,5.40
2022-09-27T15:27:55.637Z,6.00
2022-09-27T15:30:30.363Z,5.00
2022-09-27T15:33:02.141Z,5.10
2022-09-27T15:38:18.308Z,5.70
2022-09-27T15:41:11.308Z,5.20
2022-09-27T15:43:45.690Z,5.10
2022-09-27T15:46:38.928Z,5.80
2022-09-27T15:49:34.815Z,5.30
2022-09-27T15:52:08.077Z,5.50
2022-09-27T15:54:39.694Z,6.10
2022-09-27T15:59:42.534Z,5.80
2022-09-27T16:02:17.667Z,5.20
2022-09-27T16:04:49.088Z,5.70
2022-09-27T16:07:20.988Z,5.00
2022-09-27T16:12:23.740Z,6.10
2022-09-27T16:14:56.219Z,5.70
2022-09-27T16:17:27.743Z,6.00
2022-09-27T16:22:29.128Z,5.40
2022-09-27T16:25:01.948Z,5.50
2022-09-27T16:27:33.363Z,5.50
2022-09-27T16:32:36.499Z,6.30
2022-09-27T16:35:09.063Z,6.00
2022-09-27T16:37:40.509Z,5.60
2022-09-27T16:40:14.110Z,6.00
2022-09-27T16:42:46.203Z,5.20
2022-09-27T16:45:19.586Z,6.10
2022-09-27T16:47:51.808Z,6.00
2022-09-27T16:50:41.401Z,5.60
2022-09-27T16:53:13.763Z,5.40
2022-09-27T16:55:45.880Z,5.60
2022-09-27T17:00:48.135Z,5.70
2022-09-27T17:03:20.246Z,5.10
2022-09-27T17:05:51.863Z,6.10
2022-09-27T17:08:23.817Z,6.60
2022-09-27T17:13:25.648Z,6.40
2022-09-27T17:15:57.297Z,6.50
2022-09-27T17:18:29.218Z,6.10
2022-09-27T17:21:05.339Z,7.20
2022-09-27T17:23:37.259Z,6.50
2022-09-27T17:28:41.071Z,6.50
2022-09-27T17:31:15.950Z,6.00
2022-09-27T17:33:48.755Z,5.90
2022-09-27T17:36:21.395Z,6.60
2022-09-27T17:38:53.315Z,6.70
2022-09-27T17:43:57.991Z,6.80
2022-09-27T17:46:30.940Z,6.20
2022-09-27T17:49:20.207Z,7.00
2022-09-27T17:51:52.974Z,6.20
2022-09-27T17:54:28.129Z,6.20
2022-09-27T17:56:59.866Z,6.50
2022-09-27T17:59:31.712Z,6.40
2022-09-27T18:02:03.685Z,5.60
2022-09-27T18:04:35.190Z,6.50
2022-09-27T18:07:06.638Z,6.50
2022-09-27T18:09:38.295Z,6.40
2022-09-27T18:12:09.912Z,6.70
2022-09-27T18:17:13.671Z,6.70
2022-09-27T18:19:45.436Z,6.70
2022-09-27T18:22:17.656Z,6.70
2022-09-27T18:27:20.483Z,7.00
2022-09-27T18:29:52.132Z,7.00
2022-09-27T18:35:13.146Z,6.90
2022-09-27T18:37:47.712Z,7.70
2022-09-27T18:40:38.034Z,7.60
2022-09-27T18:43:12.320Z,7.40
2022-09-27T18:48:13.354Z,7.70
2022-09-27T18:50:45.413Z,8.30
2022-09-27T18:53:17.132Z,7.80
2022-09-27T18:58:18.937Z,8.10
2022-09-27T19:00:50.600Z,8.60
2022-09-27T19:05:57.889Z,7.70
2022-09-27T19:08:29.519Z,8.10
2022-09-27T19:11:07.241Z,7.40
2022-09-27T19:13:48.454Z,7.10
2022-09-27T19:16:23.007Z,6.50
2022-09-27T19:18:54.682Z,7.50
2022-09-27T19:23:56.588Z,7.50
2022-09-27T19:26:29.137Z,7.70
2022-09-27T19:29:00.551Z,7.60
2022-09-27T19:31:32.463Z,7.10
2022-09-27T19:34:04.270Z,8.50
2022-09-27T19:39:06.025Z,7.10
2022-09-27T19:44:08.234Z,7.70
2022-09-27T19:46:40.711Z,7.30
2022-09-27T19:49:12.377Z,7.10
2022-09-27T19:51:43.935Z,6.60
2022-09-27T19:54:15.709Z,7.90
2022-09-27T19:56:49.640Z,7.30
2022-09-27T19:59:21.570Z,6.40
2022-09-27T20:01:53.434Z,8.30
2022-09-27T20:04:28.043Z,7.80
2022-09-27T20:06:59.988Z,7.90
2022-09-27T20:09:31.372Z,7.20
2022-09-27T20:12:03.554Z,8.60
2022-09-27T20:14:35.098Z,8.10
2022-09-27T20:17:07.035Z,8.00
2022-09-27T20:19:39.253Z,8.30
2022-09-27T20:22:10.879Z,7.10
2022-09-27T20:27:12.283Z,6.70
2022-09-27T20:29:44.465Z,7.00
2022-09-27T20:32:27.489Z,7.50
2022-09-27T20:34:59.817Z,7.60
2022-09-27T20:37:31.267Z,6.90
2022-09-27T20:40:07.762Z,7.30
2022-09-27T20:42:39.312Z,7.60
2022-09-27T20:45:11.542Z,7.90
2022-09-27T20:47:43.102Z,7.70
2022-09-27T20:50:14.971Z,8.10
2022-09-27T20:52:46.614Z,8.60
2022-09-27T20:55:18.266Z,8.40
2022-09-27T21:00:29.436Z,7.50
2022-09-27T21:03:00.982Z,8.60
2022-09-27T21:05:32.437Z,8.20
2022-09-27T21:08:04.292Z,8.30
2022-09-27T21:13:05.530Z,8.60
2022-09-27T21:15:37.003Z,8.00
2022-09-27T21:18:09.528Z,9.60
2022-09-27T21:20:40.896Z,8.30
2022-09-27T21:23:12.475Z,9.50
2022-09-27T21:25:44.141Z,8.10
2022-09-27T21:30:45.857Z,9.10
2022-09-27T21:33:17.442Z,9.50
2022-09-27T21:35:53.751Z,9.80
2022-09-27T21:38:26.050Z,9.00
2022-09-27T21:41:02.000Z,8.30
2022-09-27T21:43:34.286Z,9.40
2022-09-27T21:46:06.952Z,10.30
2022-09-27T21:48:39.291Z,10.30
2022-09-27T21:51:12.088Z,9.50
2022-09-27T21:53:45.556Z,9.90
2022-09-27T21:56:16.915Z,9.30
2022-09-27T21:58:48.612Z,10.10
2022-09-27T22:01:21.428Z,10.50
2022-09-27T22:03:54.341Z,10.10
2022-09-27T22:06:26.759Z,10.50
2022-09-27T22:08:58.385Z,10.30
2022-09-27T22:11:31.154Z,11.30
2022-09-27T22:14:02.588Z,11.00
2022-09-27T22:16:34.043Z,11.00
2022-09-27T22:19:05.560Z,11.70
2022-09-27T22:21:38.001Z,11.40
2022-09-27T22:24:11.694Z,10.30
2022-09-27T22:26:43.891Z,11.90
2022-09-27T22:29:15.533Z,10.70
2022-09-27T22:34:19.039Z,12.20
2022-09-27T22:36:50.388Z,11.60
2022-09-27T22:39:23.389Z,11.40
2022-09-27T22:41:54.823Z,11.30
2022-09-27T22:44:26.287Z,11.80
2022-09-27T22:46:57.768Z,11.70
2022-09-27T22:49:29.325Z,11.70
2022-09-27T22:52:01.168Z,12.70
2022-09-27T22:54:32.697Z,11.70
2022-09-27T22:57:04.722Z,12.40
2022-09-27T22:59:36.209Z,10.90
2022-09-27T23:02:07.946Z,13.20
2022-09-27T23:07:09.396Z,12.50
2022-09-27T23:09:40.995Z,11.80
2022-09-27T23:12:12.428Z,12.60
2022-09-27T23:14:43.901Z,12.60
2022-09-27T23:17:16.129Z,12.50
2022-09-27T23:19:47.569Z,12.90
2022-09-27T23:22:18.968Z,11.70
2022-09-27T23:24:50.496Z,11.90
2022-09-27T23:27:39.563Z,12.90
2022-09-27T23:30:12.726Z,11.50
2022-09-27T23:32:46.027Z,12.50
2022-09-27T23:35:17.779Z,13.00
2022-09-27T23:40:19.350Z,13.80
2022-09-27T23:42:52.633Z,12.90
2022-09-27T23:45:23.960Z,13.20
2022-09-27T23:47:57.937Z,14.30
2022-09-27T23:50:30.573Z,15.10
2022-09-27T23:53:02.251Z,13.90
2022-09-27T23:55:33.623Z,14.10
2022-09-27T23:58:05.048Z,13.60
